MTB weather

Puerto Adolfo López Mateos Airstrip
Comondú, Baja California Sur, Mexico

Public forecast

Using degrees Celsius for public forecast. Weather courtesy of forecast.io.

Closest aviation weather report (METAR) to Puerto Adolfo López Mateos Airstrip

Report is more than 2 hours old.

Closest report is Loreto International Airport, 63.1 nm (116.9 km) NE. Retrieved 2020/01/20 01:46 UTC (4 hours ago):

MMLT 200146Z 00000KT 10SM SCT240 18/15 A3000 RMK 8/002

Closest aviation forecast (TAF) to Puerto Adolfo López Mateos Airstrip

Forecast is more than 6 hours old.

Closest forecast is Loreto International Airport, 63.1 nm (116.9 km) NE. Retrieved 2020/01/19 18:15 UTC (11 hours ago):

TAF MMLT 191613Z 1918/2018 34008KT P6SM SCT120 BECMG 1920/1921 36012KT SCT240 FM200200 02005KT P6SM SCT240 BECMG 2005/2006 00000KT FM201200 00000KT P6SM SCT030 BKN240